Time;durP1;ratioP1;P1;durP2;ratioP2;P2;SDS_P1;SDS_P2;PMS_P1;PMS_P2;Temp;Humidity;BMP_temperature;BMP_pressure;BME280_temperature;BME280_humidity;BME280_pressure;Samples;Min_cycle;Max_cycle;Signal;HPM_P1;HPM_P2
2021/11/28 00:28:26;;;;;;;;;;;;;;;;;;;;;
2021/11/28 00:34:51;;;;;;;8.73;6.15;;;5.50;95.80;;;;;;5931592;24;20021;-94
2021/11/28 00:37:50;;;;;;;11.52;6.90;;;5.50;95.80;;;;;;5888739;24;20013;-93
2021/11/28 00:41:01;;;;;;;;;;;;;;;;;;;;;
2021/11/28 01:11:27;;;;;;;;;;;;;;;;;;;;;
2021/11/28 01:14:15;;;;;;;9.88;6.50;;;5.40;95.80;;;;;;6151817;23;20068;-94
2021/11/28 01:17:34;;;;;;;;;;;;;;;;;;;;;
2021/11/28 01:30:30;;;;;;;9.73;6.97;;;5.30;95.70;;;;;;5936661;23;20113;-93
2021/11/28 02:01:00;;;;;;;10.07;6.15;;;5.30;95.70;;;;;;6016968;23;20014;-92
2021/11/28 02:10:43;;;;;;;10.27;6.43;;;5.30;95.80;;;;;;6222166;23;20004;-92
2021/11/28 04:03:43;;;;;;;21.05;15.18;;;5.20;95.70;;;;;;6248142;22;20026;-92
2021/11/28 04:30:36;;;;;;;18.95;14.15;;;5.20;95.90;;;;;;6073846;23;20377;-93
2021/11/28 05:46:09;;;;;;;23.02;16.30;;;4.90;95.60;;;;;;6205825;23;20016;-91
2021/11/28 07:18:41;;;;;;;;;;;;;;;;;;;;;
2021/11/28 07:26:07;;;;;;;24.40;14.43;;;3.10;95.20;;;;;;5851876;24;20555;-92
2021/11/28 07:32:40;;;;;;;25.00;16.35;;;3.10;95.40;;;;;;5876907;24;20028;-93
2021/11/28 07:35:13;;;;;;;32.65;18.33;;;3.20;95.50;;;;;;5931717;24;20020;-92
2021/11/28 07:38:16;;;;;;;;;;;;;;;;;;;;;
2021/11/28 07:41:05;;;;;;;31.58;19.05;;;3.20;95.70;;;;;;6017188;23;20030;-93
2021/11/28 07:57:25;;;;;;;52.58;23.17;;;3.40;96.00;;;;;;6035522;23;20018;-94
2021/11/28 08:20:26;;;;;;;38.83;22.58;;;3.60;96.40;;;;;;6005178;23;20035;-91
2021/11/28 08:27:29;;;;;;;;;;;;;;;;;;;;;
2021/11/28 08:30:04;;;;;;;37.25;21.50;;;3.70;96.50;;;;;;6083969;23;20023;-92
2021/11/28 08:42:38;;;;;;;34.00;18.52;;;3.80;96.50;;;;;;6132709;23;20106;-92
2021/11/28 08:45:14;;;;;;;30.50;18.52;;;3.90;96.50;;;;;;6167281;23;20012;-91
2021/11/28 08:47:43;;;;;;;27.77;17.88;;;3.90;96.40;;;;;;6166590;23;20087;-90
2021/11/28 08:50:14;;;;;;;28.40;18.23;;;3.80;96.40;;;;;;6166462;23;20001;-88
2021/11/28 08:52:43;;;;;;;;;;;3.80;96.70;;;;;;6164698;23;20043;-88
2021/11/28 08:55:09;;;;;;;28.50;17.85;;;3.90;96.40;;;;;;6191467;23;19904;-88
2021/11/28 08:57:35;;;;;;;30.38;17.48;;;3.90;96.40;;;;;;6165694;23;19997;-88
2021/11/28 09:00:14;;;;;;;29.40;18.52;;;3.90;96.30;;;;;;6164747;23;20005;-89
2021/11/28 09:03:05;;;;;;;30.52;17.63;;;3.90;96.30;;;;;;6165433;23;20001;-89
2021/11/28 09:05:44;;;;;;;31.37;18.93;;;3.90;96.30;;;;;;6165385;23;20465;-89
2021/11/28 09:08:22;;;;;;;32.28;19.27;;;4.00;96.30;;;;;;6140280;23;20256;-89
2021/11/28 09:11:04;;;;;;;31.63;19.48;;;4.00;96.30;;;;;;6164985;23;19997;-88
2021/11/28 09:13:42;;;;;;;30.80;19.13;;;3.90;96.20;;;;;;6165368;23;20009;-89
2021/11/28 09:16:39;;;;;;;30.92;19.20;;;4.00;96.20;;;;;;6164684;23;20005;-89
2021/11/28 09:19:18;;;;;;;32.75;18.73;;;4.00;96.20;;;;;;6164611;23;20008;-89
2021/11/28 09:22:09;;;;;;;28.73;17.33;;;4.00;96.20;;;;;;6169988;23;20027;-88
2021/11/28 09:24:48;;;;;;;31.73;19.17;;;4.10;96.30;;;;;;6219695;23;20425;-89
2021/11/28 09:27:23;;;;;;;28.95;18.10;;;4.10;96.30;;;;;;6196896;23;20014;-90
2021/11/28 09:30:05;;;;;;;;;;;;;;;;;;;;;
2021/11/28 09:32:33;;;;;;;;;;;4.30;96.30;;;;;;6220830;23;20096;-90
2021/11/28 09:35:30;;;;;;;31.45;19.02;;;4.30;96.30;;;;;;6220345;23;19939;-92
2021/11/28 09:38:10;;;;;;;28.75;17.20;;;4.30;96.20;;;;;;6206436;23;20016;-90
2021/11/28 09:40:48;;;;;;;29.95;18.35;;;4.40;96.30;;;;;;6221795;23;20004;-90
2021/11/28 09:43:15;;;;;;;29.90;18.20;;;4.40;96.20;;;;;;6221733;23;20005;-88
2021/11/28 09:45:54;;;;;;;27.58;18.30;;;4.50;96.20;;;;;;6220865;23;20003;-90
2021/11/28 09:48:30;;;;;;;29.25;17.80;;;4.50;96.20;;;;;;6220814;23;20004;-89
2021/11/28 09:51:23;;;;;;;25.00;16.20;;;4.60;96.20;;;;;;6220235;23;20005;-89
2021/11/28 09:54:14;;;;;;;27.02;17.35;;;4.60;96.10;;;;;;6221005;23;20009;-89
2021/11/28 09:57:05;;;;;;;30.02;18.13;;;4.60;96.10;;;;;;6208274;23;20005;-90
2021/11/28 10:06:16;;;;;;;;;;;4.80;96.10;;;;;;6166127;23;20061;-89
2021/11/28 10:08:53;;;;;;;28.42;17.52;;;4.80;96.10;;;;;;6220029;23;19908;-91
2021/11/28 10:11:31;;;;;;;26.58;16.80;;;4.90;96.10;;;;;;6174985;23;20009;-89
2021/11/28 10:14:22;;;;;;;27.33;17.45;;;5.00;96.10;;;;;;6220796;23;20004;-90
2021/11/28 10:16:58;;;;;;;26.13;16.80;;;5.00;96.10;;;;;;6219231;23;20005;-90
2021/11/28 10:19:56;;;;;;;;;;;;;;;;;;;;;
2021/11/28 10:22:59;;;;;;;;;;;;;;;;;;;;;
2021/11/28 10:25:35;;;;;;;25.67;16.65;;;5.10;96.00;;;;;;6221283;23;20020;-90
2021/11/28 10:28:17;;;;;;;26.02;16.33;;;5.10;96.00;;;;;;6220172;23;20001;-90
2021/11/28 10:31:20;;;;;;;22.55;15.27;;;5.10;96.00;;;;;;6195205;23;20333;-92
2021/11/28 10:36:45;;;;;;;23.52;16.05;;;5.10;95.90;;;;;;6220911;23;20012;-90
2021/11/28 10:50:30;;;;;;;;;;;;;;;;;;;;;
2021/11/28 11:21:00;;;;;;;24.10;16.40;;;5.60;95.80;;;;;;5959589;24;20079;-89
2021/11/28 11:33:49;;;;;;;;;;;;;;;;;;;;;
2021/11/28 11:36:38;;;;;;;26.27;18.40;;;5.80;95.80;;;;;;6081902;23;20053;-92
2021/11/28 11:39:29;;;;;;;;;;;5.90;95.80;;;;;;6019521;23;20008;-93
2021/11/28 11:46:21;;;;;;;25.75;18.40;;;5.90;95.80;;;;;;6162097;23;20017;-92
2021/11/28 11:59:40;;;;;;;27.55;18.30;;;6.20;95.90;;;;;;6016725;23;20015;-89
2021/11/28 12:02:11;;;;;;;25.42;17.40;;;6.20;95.80;;;;;;6106276;23;20010;-89
2021/11/28 12:25:33;;;;;;;17.30;11.45;;;6.20;95.20;;;;;;6081557;23;20102;-90
2021/11/28 12:32:19;;;;;;;;;;;;;;;;;;;;;
2021/11/28 12:35:28;;;;;;;18.92;11.02;;;6.30;95.10;;;;;;6191349;23;20099;-90
2021/11/28 12:38:03;;;;;;;17.90;12.00;;;6.30;95.10;;;;;;6190141;23;20001;-88
2021/11/28 12:40:35;;;;;;;17.02;11.20;;;6.30;95.20;;;;;;6165432;23;20093;-89
2021/11/28 12:43:20;;;;;;;16.58;11.50;;;6.30;95.20;;;;;;6165358;23;20001;-90
2021/11/28 12:46:32;;;;;;;15.75;10.00;;;6.30;95.20;;;;;;6163488;23;20008;-90
2021/11/28 12:49:16;;;;;;;;;;;6.40;95.20;;;;;;6165118;23;20069;-90
2021/11/28 12:51:49;;;;;;;9.98;6.88;;;6.30;95.10;;;;;;6164828;23;20218;-90
2021/11/28 12:55:20;;;;;;;8.63;6.00;;;6.40;95.10;;;;;;6140699;23;20005;-90
2021/11/28 12:58:05;;;;;;;5.47;3.35;;;6.30;95.00;;;;;;6179468;23;20001;-90
2021/11/28 13:00:58;;;;;;;4.22;2.97;;;6.30;95.00;;;;;;6188425;23;19997;-93
2021/11/28 13:03:46;;;;;;;4.05;2.47;;;6.30;95.00;;;;;;6183093;23;19994;-91
2021/11/28 13:06:48;;;;;;;;;;;;;;;;;;;;;
2021/11/28 13:09:44;;;;;;;4.32;2.10;;;6.20;94.70;;;;;;6167101;23;20089;-90
2021/11/28 13:12:11;;;;;;;2.20;1.33;;;6.10;94.70;;;;;;6165010;23;20005;-90
2021/11/28 13:24:44;;;;;;;0.65;0.50;;;6.00;94.80;;;;;;6125375;23;20040;-92
2021/11/28 13:27:19;;;;;;;0.57;0.50;;;5.90;94.70;;;;;;6104244;23;20049;-92
2021/11/28 13:29:59;;;;;;;0.75;0.47;;;5.80;94.70;;;;;;6163372;23;20341;-91
2021/11/28 13:32:35;;;;;;;1.20;0.30;;;5.80;94.90;;;;;;6220516;23;20083;-90
2021/11/28 13:35:36;;;;;;;1.33;0.20;;;5.80;94.90;;;;;;6220214;23;20159;-95
2021/11/28 13:41:30;;;;;;;1.40;0.30;;;5.70;94.70;;;;;;6100889;23;20006;-90
2021/11/28 13:54:00;;;;;;;0.88;0.30;;;5.50;94.50;;;;;;6150386;23;20359;-88
2021/11/28 13:56:45;;;;;;;1.90;0.20;;;5.60;94.40;;;;;;6218569;23;20005;-91
2021/11/28 13:59:15;;;;;;;0.80;0.20;;;5.60;94.50;;;;;;6218639;23;20008;-88
2021/11/28 14:01:44;;;;;;;1.65;0.43;;;5.50;94.50;;;;;;6218847;23;20004;-90
2021/11/28 14:04:35;;;;;;;1.42;0.50;;;5.50;94.50;;;;;;6218769;23;20001;-90
2021/11/28 14:07:12;;;;;;;1.67;0.52;;;5.60;94.70;;;;;;6219127;23;20003;-90
2021/11/28 14:09:59;;;;;;;0.82;0.52;;;5.50;94.40;;;;;;6218660;23;20008;-89
2021/11/28 14:15:41;;;;;;;0.63;0.50;;;5.60;94.40;;;;;;6219150;23;20095;-91
2021/11/28 14:19:02;;;;;;;0.95;0.50;;;5.60;94.30;;;;;;6219320;23;20001;-91
2021/11/28 14:22:10;;;;;;;;;;;;;;;;;;;;;
2021/11/28 14:24:51;;;;;;;;;;;;;;;;;;;;;
2021/11/28 14:31:00;;;;;;;1.85;0.77;;;5.60;94.30;;;;;;6243389;23;19997;-89
2021/11/28 14:34:08;;;;;;;1.52;0.55;;;5.60;94.40;;;;;;6243597;23;20044;-91
2021/11/28 14:36:48;;;;;;;0.95;0.52;;;5.60;94.30;;;;;;6209961;23;20008;-89
2021/11/28 14:39:41;;;;;;;1.13;0.60;;;5.50;94.50;;;;;;6197549;23;20095;-89
2021/11/28 14:42:20;;;;;;;4.07;1.10;;;5.50;94.20;;;;;;6221991;23;20011;-88
2021/11/28 14:44:58;;;;;;;3.47;0.70;;;5.50;94.20;;;;;;6220561;23;20091;-89
2021/11/28 14:47:29;;;;;;;2.70;0.45;;;5.50;94.20;;;;;;6220689;23;20000;-88
2021/11/28 14:50:03;;;;;;;1.67;0.55;;;5.40;94.20;;;;;;6220343;23;20032;-90
2021/11/28 14:52:35;;;;;;;3.92;0.85;;;5.40;94.30;;;;;;6218758;23;20100;-87
2021/11/28 14:55:39;;;;;;;4.05;0.93;;;5.40;94.30;;;;;;6221026;23;20005;-90
2021/11/28 14:58:10;;;;;;;7.53;2.70;;;5.40;94.30;;;;;;6102350;23;20002;-89
2021/11/28 15:03:30;;;;;;;2.03;1.13;;;5.40;94.30;;;;;;6222840;23;20063;-89
2021/11/28 15:06:08;;;;;;;4.20;1.00;;;5.40;94.30;;;;;;6197072;23;20013;-89
2021/11/28 15:09:01;;;;;;;2.72;0.73;;;5.40;94.40;;;;;;6197376;23;20299;-89
2021/11/28 15:11:41;;;;;;;3.78;0.57;;;5.30;94.40;;;;;;6220154;23;20001;-89
2021/11/28 15:14:11;;;;;;;2.90;0.90;;;5.30;94.50;;;;;;6196269;23;20392;-90
2021/11/28 15:17:39;;;;;;;;;;;;;;;;;;;;;
2021/11/28 15:21:05;;;;;;;;;;;;;;;;;;;;;
2021/11/28 15:23:45;;;;;;;;;;;;;;;;;;;;;
2021/11/28 15:26:14;;;;;;;2.85;0.73;;;5.40;94.70;;;;;;6220906;23;20036;-89
2021/11/28 15:29:10;;;;;;;0.90;0.65;;;5.40;94.70;;;;;;6219664;23;20008;-91
2021/11/28 15:31:51;;;;;;;;;;;;;;;;;;;;;
2021/11/28 15:34:34;;;;;;;1.35;0.80;;;5.40;94.70;;;;;;6220526;23;20083;-90
2021/11/28 15:37:24;;;;;;;2.10;0.70;;;5.40;94.80;;;;;;6220331;23;20008;-90
2021/11/28 15:39:53;;;;;;;2.50;0.63;;;5.30;94.70;;;;;;6220291;23;20031;-89
2021/11/28 15:42:25;;;;;;;1.52;0.90;;;5.30;94.70;;;;;;6219649;23;20023;-90
2021/11/28 15:45:27;;;;;;;1.17;1.00;;;5.30;94.80;;;;;;6220235;23;19997;-93
2021/11/28 15:47:56;;;;;;;1.63;0.80;;;5.30;94.80;;;;;;6220776;23;20004;-95
2021/11/28 20:55:00;;;;;;;;;;;;;;;;;;;;;
2021/11/28 21:40:44;;;;;;;10.00;6.30;;;2.10;95.10;;;;;;6188038;22;20016;-94
2021/11/28 21:43:30;;;;;;;;;;;;;;;;;;;;;
2021/11/28 21:46:23;;;;;;;;;;;;;;;;;;;;;
2021/11/28 21:58:38;;;;;;;;;;;;;;;;;;;;;
2021/11/28 22:04:32;;;;;;;8.25;6.10;;;1.90;95.10;;;;;;6187696;23;20008;-94
2021/11/28 22:07:53;;;;;;;;;;;;;;;;;;;;;
2021/11/28 22:10:46;;;;;;;;;;;;;;;;;;;;;
2021/11/28 22:17:31;;;;;;;;;;;;;;;;;;;;;
2021/11/28 22:24:01;;;;;;;8.27;5.20;;;2.00;95.20;;;;;;6256917;23;19999;-95
2021/11/28 22:27:18;;;;;;;;;;;;;;;;;;;;;
2021/11/28 22:30:33;;;;;;;;;;;;;;;;;;;;;
2021/11/28 22:33:46;;;;;;;;;;;;;;;;;;;;;
2021/11/28 22:40:27;;;;;;;9.05;5.68;;;2.10;95.30;;;;;;6150150;23;20004;-94
2021/11/28 22:43:52;;;;;;;8.13;5.38;;;2.10;95.30;;;;;;6228459;23;20051;-95
2021/11/28 22:46:54;;;;;;;8.05;5.10;;;2.10;95.30;;;;;;6108466;23;20064;-94
2021/11/28 22:53:45;;;;;;;;;;;;;;;;;;;;;
2021/11/28 22:56:23;;;;;;;;;;;;;;;;;;;;;
2021/11/28 22:59:36;;;;;;;;;;;;;;;;;;;;;
2021/11/28 23:12:34;;;;;;;;;;;;;;;;;;;;;
2021/11/28 23:17:59;;;;;;;8.07;4.50;;;2.20;95.00;;;;;;6257105;23;20000;-95
2021/11/28 23:21:12;;;;;;;10.38;4.95;;;2.20;95.00;;;;;;6229784;23;20017;-96
2021/11/28 23:23:57;;;;;;;7.15;4.05;;;2.10;95.10;;;;;;6232117;23;20015;-95
2021/11/28 23:26:38;;;;;;;10.20;4.00;;;2.10;95.00;;;;;;6208665;22;20001;-93
2021/11/28 23:30:02;;;;;;;7.17;3.93;;;2.10;95.00;;;;;;6233845;22;20016;-94
2021/11/28 23:33:10;;;;;;;;;;;;;;;;;;;;;
2021/11/28 23:55:52;;;;;;;;;;;;;;;;;;;;;
2021/11/28 23:58:38;;;;;;;;;;;2.00;95.00;;;;;;6218832;23;20025;-95
